Relevés horaires Florennes (Belgique)


Relevés horaires à Florennes - Samedi 02 Mai 2026
Heure UTC1 Température [°C] Vent [km/h] Hum. [%] Pres.4 [hPa] Visi. [Km] Nébu. [octa] Préc.5 [mm] Cond.
2m. Res. Ros. Dir.2 Vit. Moy. Raf.3
23:00 16.1 16.1 11.7 SSO 3.7 -- 7.4 75 1013.2(-0.5/3h) >70 -- -- --
22:00 16.6 16.6 12.4 S 3.7 -- 5.6 76 1013.2(-0.4/3h) >70 -- -- --
21:00 17.0 17.0 12.5 S 3.7 -- 5.6 75 1013.3(-0.2/3h) >70 -- -- --
20:00 16.8 16.8 12.6 NNO 1.9 -- 5.6 76 1013.7(-0.2/3h) >70 -- -- --
19:00 15.8 15.8 14.3 ENE 3.7 -- 5.6 91 1013.7(-1.0/3h) 45 -- -- --
18:00 17.7 17.7 14.6 NNO 1.9 -- 14.8 82 1013.5(-1.5/3h) 25 7/8 1/12h
Il y a eu un orage, avec ou sans précipitations, à la station au cours de l'heure précédente, mais il n'y a ni tonnerre ni précipitations au moment de l'observation. Il faut que le tonnerre ait été perceptible pour la dernière fois 15 minutes ou plus avant l'observation
17:00 21.2 21.2 11.1 SSO 3.7 -- 9.3 52 1013.5(-2.2/3h) >70 -- -- --
16:00 22.3 22.3 11.2 SO 5.6 -- 11.1 49 1013.8(-2.4/3h) >70 -- -- --
15:00 23.1 23.1 10.7 S 5.6 -- 11.1 46 1014.5(-2.3/3h) >70 -- -- --
14:00 22.6 22.6 10.9 S 3.7 -- 9.3 48 1015.6(-2.0/3h) >70 -- -- --
13:00 21.5 21.5 12.6 ONO 3.7 -- 11.1 57 1016.5(-1.6/3h) >70 -- -- --
12:00 20.5 20.5 11.8 SO 5.6 -- 16.7 57 1017.2(-1.2/3h) >70 -- -- NA
11:00 20.8 20.8 11.9 SO 9.3 -- 16.7 57 1018(-0.6/3h) >70 -- -- NA
10:00 19.9 19.9 11.5 S 9.3 -- 16.7 58 1018.3(-0.5/3h) >70 -- -- --
09:00 18.2 18.2 11.9 SO 5.6 -- 11.1 67 1018.8(-0.4/3h) >70 -- -- --
08:00 16.7 16.7 11.7 SSO 5.6 -- 11.1 72 1019.2(0.0/3h) >70 -- -- --
07:00 14.5 14.5 10.3 NNO 1.9 -- 5.6 76 1019.6(0.1/3h) >70 -- -- --
06:00 12.9 12.9 9.9 NNO 1.9 -- 9.3 82 1020(-0.2/3h) >70 -- 0.7/12h
NA
05:00 12.8 12.8 9.7 NNO 1.9 -- 3.7 81 1019.7(-0.7/3h) >70 -- -- --
04:00 13.0 13.0 9.6 NNO 1.9 -- 7.4 80 1019.7(-0.9/3h) 45 -- -- NA
03:00 14.5 14.5 3.7 S 5.6 -- 9.3 48 1020.1(-0.4/3h) >70 -- -- --
02:00 14.8 14.8 2.9 S 3.7 -- 5.6 45 1020.2(-0.6/3h) >70 -- -- --
01:00 13.0 13.0 1.5 NNO 1.9 -- 3.7 45 1020.7(-0.9/3h) >70 -- -- --
00:00 14.1 14.1 0.1 NNO 1.9 -- 5.6 38 1020.7(-1.0/3h) >70 -- -- --

1 Coordinated Universal Time. Actuellement il est 00:00 locale et 22:00 UTC.

2 Le vent souffle depuis la direction indiquée vers la direction oposée.

3 Les rafales max. sont disponible 40 min après l'heure du relevé.

4 Pour les stations d'altitude (plus de 600m) le géopotentiel du niveau le plus proche de la pression obligatoire est indiqué.

5 Les stations disposant d'un diffuseur peuvent indiquer "trace". Cela signifie que des précipitations ont touchés le sol mais que la quantité est inférieure à 0.1 mm.

Récapitulatif de la journée
Température [°C] Vent [km/h] Ensoleillement4 [h] Precipitations totale5 [mm] Pression [Hpa]
Min1 Max.2 Moy.3 Max. Min Max.
11.8 23.3 0 16.7 0 h 0 min 0 1013.2 1020.7

1 Température minimale relevée entre 18:00 UTC la veille et 18:00 UTC le jour donné.

2 Température maximale relevée entre 06:00 UTC le jour donné et 06:00 UTC le lendemain.

3 Vent moyen de la journée basé sur les relevés horaires.

4 Ensoleillement en heures relevé entre 06:00 UTC la veille et 06:00 UTC le jour donné.

5 Précipitations totales tombées entre 06:00 UTC la jour donné et 06:00 UTC le lendemain.

Graphiques horaires